Bacobi, Arizona
Current Conditions -  °F | °C
As of 5:31 PM on Tuesday 25 Nov 2014 (Local Time) from KINW Reporting Station
Haze Haze  
Wind Chill: 49°   Ceiling: Unl
Heat Index: 49°   Visibility: 2.5mi
Dew Point:   Wind: 0mph
Humidity: 13%   Direction: NA
Pressure: 30.35"   Gusts: NA
Location:  36.2405°N, 110.59°W
Report Text: KINW 260031Z AUTO 00000KT 2 1/2SM HZ CLR 09/M18 A3035 RMK AO2 T00941178
Loading
Personal Weather Stations






























Interactive Weather Map New forecast layout! Learn more

10-Day Weather Forecast

Advertisements
Track Severe Weather on mobile